< < Back
Terminal Aerodrome Forecast


Current Version              Previous Versions:   1  2  3  4  5  6  7  8  9  

Terminal Aerodrome Forecast

039
FTUS42 KILM 011003 AAB
TAFFLO
TAF AMD
KFLO 011003Z 0110/0206 24006KT P6SM OVC007
     FM011400 26008KT P6SM SCT070 SCT250=

Latest METAR

554
SAUS70 KWBC 012256
MTRFLO
METAR KFLO 012253Z AUTO 23008KT 10SM CLR 29/21 A2995 RMK AO2 SLP139
T02890211 TSNO


USA.gov is the U.S. government's official web portal to all federal, state and local government web resources and services.